DAON

Details ICAO DAON (TLM)
Name ZENATA
Region Algeria
Timezone Africa/Algiers (UTC+1.0)
Plans Departing 15
Arriving 19
Stats Elevation 814 ft / 248 m (AMSL)
Location 35.013350° -1.457202°
Runways 1
Magnetic Variation 0.067° W
Sunrise 2017-12-17 07:09:08 UTC / 2017-12-17 08:09:08 Local
Sunset 2017-12-17 16:57:30 UTC / 2017-12-17 17:57:30 Local
Advertisement - Login to hide

Runways

ID Width Length Bearing (true) Bearing (mag) Surface Threshold Offset Overrun Length
07 148 ft / 45 m 8,521 ft / 2,597 m 69.94° 70.01° Asphalt 0 ft / 0 m 0 ft / 0 m
25 148 ft / 45 m 8,521 ft / 2,597 m 249.96° 250.03° Asphalt 0 ft / 0 m 0 ft / 0 m

Map

Weather


0- 5 10 15 20 25 30 35+ Temperature / ° C

Clouds and Precipitation
Forecast for 2017-12-17 18:00 UTC. Updated an hour ago

Ground ~20,000 ft ~40,000 ft Winds

METAR

DAON 171600Z 04007KT 9999 SCT026 14/05 Q1026

TAF

TAF DAON 171100Z 1712/1812 02010KT CAVOK BECMG 1720/1722 VRB02KT PROB40 TEMPO 1802/1807 3000 BR NSC

Frequencies

Tower 119.70 MHz TLEMCEN TWR
Warning: Do not use this data for real-world aviation or navigation. No guarantee of current accuracy is given.